Time;durP1;ratioP1;P1;durP2;ratioP2;P2;SDS_P1;SDS_P2;PMS_P1;PMS_P2;Temp;Humidity;BMP_temperature;BMP_pressure;BME280_temperature;BME280_humidity;BME280_pressure;Samples;Min_cycle;Max_cycle;Signal;HPM_P1;HPM_P2
2022/05/15 00:01:27;;;;;;;5.93;3.13;;;22.30;97.90;;;;;;4191734;28;20204;-75
2022/05/15 00:03:30;;;;;;;5.57;3.00;;;22.30;97.70;;;;;;4190666;28;20277;-75
2022/05/15 00:05:32;;;;;;;6.68;3.05;;;22.30;97.90;;;;;;4190067;28;20245;-76
2022/05/15 00:07:36;;;;;;;4.57;2.67;;;22.30;97.80;;;;;;4190580;28;20275;-76
2022/05/15 00:09:38;;;;;;;5.22;3.20;;;22.20;97.70;;;;;;4191292;28;20260;-76
2022/05/15 00:11:41;;;;;;;5.60;2.92;;;22.20;97.50;;;;;;4193305;28;20264;-75
2022/05/15 00:13:44;;;;;;;5.47;2.75;;;22.20;98.00;;;;;;4193343;28;20218;-75
2022/05/15 00:15:49;;;;;;;7.40;3.22;;;22.20;97.60;;;;;;4193434;28;20759;-76
2022/05/15 00:17:51;;;;;;;5.72;2.83;;;22.20;97.90;;;;;;4192753;28;20645;-76
2022/05/15 00:19:53;;;;;;;5.43;2.90;;;22.20;98.00;;;;;;4193636;28;20269;-75
2022/05/15 00:21:56;;;;;;;4.82;3.00;;;22.20;98.00;;;;;;4193118;28;20241;-75
2022/05/15 00:24:00;;;;;;;6.75;2.75;;;22.20;98.00;;;;;;4193893;28;20265;-75
2022/05/15 00:26:02;;;;;;;5.15;2.97;;;22.20;97.80;;;;;;4193165;28;20223;-76
2022/05/15 00:28:05;;;;;;;5.50;2.92;;;22.20;98.00;;;;;;4194356;28;20222;-75
2022/05/15 00:30:09;;;;;;;6.93;3.35;;;22.20;97.80;;;;;;4194045;28;20236;-75
2022/05/15 00:32:11;;;;;;;5.88;3.17;;;22.20;98.10;;;;;;4193549;28;20257;-76
2022/05/15 00:34:13;;;;;;;5.38;3.33;;;22.20;97.90;;;;;;4193655;28;20219;-76
2022/05/15 00:36:16;;;;;;;4.90;2.60;;;22.20;97.90;;;;;;4193811;28;20296;-77
2022/05/15 00:38:18;;;;;;;6.22;3.08;;;22.10;97.90;;;;;;4192910;28;20227;-76
2022/05/15 00:40:23;;;;;;;7.93;3.42;;;22.10;98.00;;;;;;4192930;28;20257;-75
2022/05/15 00:42:26;;;;;;;6.32;3.20;;;22.10;98.00;;;;;;4193037;28;20222;-75
2022/05/15 00:44:28;;;;;;;5.38;3.13;;;22.10;97.80;;;;;;4192786;28;20215;-75
2022/05/15 00:46:34;;;;;;;5.55;3.08;;;22.20;98.00;;;;;;4193239;28;20269;-76
2022/05/15 00:48:36;;;;;;;5.03;3.05;;;22.10;98.00;;;;;;4193371;28;20745;-75
2022/05/15 00:50:39;;;;;;;5.55;3.13;;;22.10;97.80;;;;;;4193507;28;20705;-76
2022/05/15 00:52:45;;;;;;;5.35;3.30;;;22.10;98.20;;;;;;4192577;28;20317;-76
2022/05/15 00:54:51;;;;;;;5.10;2.85;;;22.10;98.00;;;;;;4192061;28;20614;-76
2022/05/15 00:57:01;;;;;;;7.05;3.58;;;22.10;97.90;;;;;;4191181;28;21766;-76
2022/05/15 00:59:08;;;;;;;5.70;2.78;;;22.10;97.90;;;;;;4192934;28;20219;-76
2022/05/15 01:01:11;;;;;;;6.30;3.05;;;22.10;98.10;;;;;;4191338;28;20260;-76
2022/05/15 01:03:15;;;;;;;5.40;3.17;;;22.10;98.10;;;;;;4191465;28;20227;-76
2022/05/15 01:05:19;;;;;;;7.00;3.50;;;22.10;98.20;;;;;;4193194;28;20620;-75
2022/05/15 01:07:21;;;;;;;6.65;3.38;;;22.10;97.90;;;;;;4193020;28;20803;-75
2022/05/15 01:09:23;;;;;;;5.07;3.40;;;22.10;97.90;;;;;;4192859;28;20215;-76
2022/05/15 01:11:26;;;;;;;7.00;3.25;;;22.10;97.90;;;;;;4192655;28;20222;-75
2022/05/15 01:13:34;;;;;;;7.35;3.33;;;22.00;97.80;;;;;;4191336;28;20264;-76
2022/05/15 01:15:36;;;;;;;5.25;3.22;;;22.00;98.00;;;;;;4192828;28;20227;-76
2022/05/15 01:17:39;;;;;;;5.95;2.92;;;22.00;97.90;;;;;;4192768;28;20218;-75
2022/05/15 01:19:42;;;;;;;6.72;3.33;;;22.00;97.90;;;;;;4192827;28;20273;-76
2022/05/15 01:21:56;;;;;;;5.18;3.33;;;22.00;97.90;;;;;;4183197;28;20592;-76
2022/05/15 01:24:00;;;;;;;5.47;3.08;;;22.00;97.90;;;;;;4190498;28;20705;-76
2022/05/15 01:26:02;;;;;;;5.10;3.47;;;22.00;98.00;;;;;;4192366;28;20222;-75
2022/05/15 01:28:08;;;;;;;7.57;2.80;;;22.00;98.20;;;;;;4192750;28;20275;-75
2022/05/15 01:30:11;;;;;;;6.15;3.42;;;22.00;98.00;;;;;;4193004;28;20223;-75
2022/05/15 01:32:14;;;;;;;4.90;2.97;;;22.00;98.00;;;;;;4192331;28;20245;-75
2022/05/15 01:34:16;;;;;;;4.43;3.10;;;22.00;98.00;;;;;;4192652;28;20261;-75
2022/05/15 01:36:21;;;;;;;4.30;2.55;;;22.00;98.10;;;;;;4192668;28;20243;-75
2022/05/15 01:38:25;;;;;;;5.38;3.08;;;22.00;98.40;;;;;;4192218;28;20280;-75
2022/05/15 01:40:27;;;;;;;7.57;3.20;;;22.00;98.50;;;;;;4192840;28;20243;-75
2022/05/15 01:42:30;;;;;;;5.30;3.10;;;22.00;98.80;;;;;;4192293;28;20289;-75
2022/05/15 01:44:33;;;;;;;8.90;3.35;;;22.00;98.20;;;;;;4192949;28;20222;-75
2022/05/15 01:46:35;;;;;;;7.00;3.08;;;22.00;98.30;;;;;;4192631;28;20256;-75
2022/05/15 01:48:38;;;;;;;5.57;2.92;;;22.00;98.60;;;;;;4192548;28;20215;-76
2022/05/15 01:50:40;;;;;;;5.82;3.65;;;22.00;98.40;;;;;;4192746;28;20621;-75
2022/05/15 01:52:43;;;;;;;7.13;3.28;;;22.00;98.30;;;;;;4191963;28;20633;-75
2022/05/15 01:54:47;;;;;;;6.10;3.63;;;22.00;98.40;;;;;;4192129;28;20214;-76
2022/05/15 01:56:49;;;;;;;3.47;2.60;;;22.00;98.40;;;;;;4190485;28;20238;-76
2022/05/15 01:58:52;;;;;;;5.97;3.10;;;22.00;98.20;;;;;;4190552;28;20219;-75
2022/05/15 02:00:54;;;;;;;5.00;3.40;;;22.00;98.40;;;;;;4190826;28;20675;-75
2022/05/15 02:02:56;;;;;;;7.07;3.20;;;21.90;98.40;;;;;;4193886;28;20675;-74
2022/05/15 02:04:59;;;;;;;5.38;2.97;;;21.90;98.30;;;;;;4193560;28;20214;-74
2022/05/15 02:07:01;;;;;;;6.05;3.10;;;21.90;98.40;;;;;;4192884;28;20698;-74
2022/05/15 02:09:05;;;;;;;7.10;3.55;;;21.90;98.40;;;;;;4193589;28;20675;-74
2022/05/15 02:11:09;;;;;;;5.75;3.40;;;21.90;98.30;;;;;;4193833;28;20227;-74
2022/05/15 02:13:12;;;;;;;5.72;3.17;;;21.90;98.60;;;;;;4193711;28;20272;-74
2022/05/15 02:15:15;;;;;;;5.80;3.72;;;21.90;98.50;;;;;;4194070;28;20614;-74
2022/05/15 02:17:18;;;;;;;6.07;3.47;;;21.90;98.40;;;;;;4191967;28;20297;-74
2022/05/15 02:19:20;;;;;;;6.03;3.13;;;21.90;98.40;;;;;;4192400;28;20223;-74
2022/05/15 02:21:22;;;;;;;6.18;3.10;;;21.90;98.30;;;;;;4193722;28;20223;-74
2022/05/15 02:23:26;;;;;;;5.43;3.30;;;21.90;98.60;;;;;;4193141;28;20630;-74
2022/05/15 02:25:29;;;;;;;5.85;3.50;;;21.90;98.30;;;;;;4191531;28;20272;-74
2022/05/15 02:27:33;;;;;;;6.20;3.20;;;21.90;98.60;;;;;;4192583;28;20227;-74
2022/05/15 02:29:35;;;;;;;5.82;2.78;;;21.90;98.80;;;;;;4192871;28;20231;-74
2022/05/15 02:31:38;;;;;;;5.25;3.08;;;21.90;98.40;;;;;;4191080;28;20231;-74
2022/05/15 02:33:41;;;;;;;6.28;3.35;;;21.90;98.40;;;;;;4193239;28;20223;-74
2022/05/15 02:35:44;;;;;;;5.93;3.00;;;21.80;98.40;;;;;;4192258;28;20226;-74
2022/05/15 02:37:47;;;;;;;5.65;3.38;;;21.80;98.40;;;;;;4192579;28;20230;-74
2022/05/15 02:39:49;;;;;;;6.38;3.40;;;21.80;98.30;;;;;;4192869;28;20227;-74
2022/05/15 02:41:51;;;;;;;5.63;3.42;;;21.80;99.00;;;;;;4194054;28;20245;-74
2022/05/15 02:43:55;;;;;;;4.95;3.45;;;21.80;98.40;;;;;;4191434;28;20747;-74
2022/05/15 02:45:57;;;;;;;6.55;3.42;;;21.80;98.70;;;;;;4192720;28;20264;-74
2022/05/15 02:48:00;;;;;;;5.93;3.30;;;21.80;98.70;;;;;;4192055;28;20276;-74
2022/05/15 02:52:22;;;;;;;6.45;3.45;;;21.80;98.70;;;;;;4193618;28;20646;-74
2022/05/15 02:54:24;;;;;;;6.28;3.80;;;21.80;98.70;;;;;;4192658;28;20280;-74
2022/05/15 02:56:29;;;;;;;6.03;3.67;;;21.80;98.80;;;;;;4193666;28;20239;-74
2022/05/15 02:58:31;;;;;;;7.25;3.30;;;21.80;98.80;;;;;;4191725;28;20210;-74
2022/05/15 03:00:35;;;;;;;6.28;3.30;;;21.80;98.80;;;;;;4193453;28;20231;-74
2022/05/15 03:02:37;;;;;;;8.30;3.50;;;21.80;98.80;;;;;;4192861;28;20215;-74
2022/05/15 03:04:40;;;;;;;6.55;3.50;;;21.80;98.90;;;;;;4192067;28;20231;-74
2022/05/15 03:06:42;;;;;;;6.43;3.22;;;21.80;98.90;;;;;;4192438;28;20923;-74
2022/05/15 03:08:47;;;;;;;6.40;3.72;;;21.70;98.90;;;;;;4189438;28;20215;-74
2022/05/15 03:10:51;;;;;;;6.88;3.60;;;21.70;98.80;;;;;;4189047;28;20728;-74
2022/05/15 03:12:53;;;;;;;5.93;3.40;;;21.70;98.80;;;;;;4192609;28;20606;-74
2022/05/15 03:14:56;;;;;;;8.10;3.63;;;21.70;98.70;;;;;;4192688;28;20223;-74
2022/05/15 03:17:00;;;;;;;6.88;3.85;;;21.70;99.20;;;;;;4192360;28;20744;-74
2022/05/15 03:19:03;;;;;;;6.20;3.30;;;21.70;98.70;;;;;;4192711;28;20218;-74
2022/05/15 03:21:05;;;;;;;6.25;3.53;;;21.70;98.80;;;;;;4192929;28;20617;-74
2022/05/15 03:23:08;;;;;;;5.65;3.55;;;21.70;98.80;;;;;;4193215;28;20258;-74
2022/05/15 03:25:11;;;;;;;5.68;3.67;;;21.70;98.90;;;;;;4193164;28;20280;-74
2022/05/15 03:27:13;;;;;;;7.55;3.65;;;21.70;98.90;;;;;;4191569;28;20219;-74
2022/05/15 03:29:18;;;;;;;6.38;3.72;;;21.70;98.90;;;;;;4192715;28;21317;-74
2022/05/15 03:31:21;;;;;;;8.90;4.10;;;21.70;98.90;;;;;;4192330;28;20231;-74
2022/05/15 03:33:24;;;;;;;6.30;3.50;;;21.70;98.80;;;;;;4193218;28;20268;-74
2022/05/15 03:35:27;;;;;;;7.03;3.50;;;21.70;98.90;;;;;;4192604;28;20222;-74
2022/05/15 03:37:29;;;;;;;7.60;3.65;;;21.70;98.90;;;;;;4191937;28;20247;-74
2022/05/15 03:39:31;;;;;;;7.97;4.05;;;21.60;98.90;;;;;;4193301;28;20622;-74
2022/05/15 03:41:34;;;;;;;7.30;3.67;;;21.70;98.90;;;;;;4192685;28;20220;-74
2022/05/15 03:43:36;;;;;;;7.15;3.58;;;21.60;98.80;;;;;;4191333;28;20272;-74
2022/05/15 03:45:39;;;;;;;6.78;3.40;;;21.60;98.90;;;;;;4195053;28;20227;-74
2022/05/15 03:47:46;;;;;;;7.32;3.55;;;21.60;98.90;;;;;;4195713;28;20275;-74
2022/05/15 03:49:50;;;;;;;6.55;3.60;;;21.60;98.90;;;;;;4195723;28;20284;-74
2022/05/15 03:51:52;;;;;;;7.90;3.75;;;21.60;98.90;;;;;;4195067;28;20269;-74
2022/05/15 03:53:55;;;;;;;3.80;3.28;;;21.60;98.90;;;;;;4196092;28;20273;-74
2022/05/15 03:55:58;;;;;;;5.53;3.53;;;21.60;98.90;;;;;;4194883;28;20268;-74
2022/05/15 03:58:00;;;;;;;6.45;3.50;;;21.60;98.90;;;;;;4193983;28;20694;-74
2022/05/15 04:00:05;;;;;;;7.93;3.95;;;21.60;98.90;;;;;;4194121;28;20253;-75
2022/05/15 04:02:10;;;;;;;5.80;3.70;;;21.60;98.90;;;;;;4192403;28;20227;-75
2022/05/15 04:04:12;;;;;;;5.63;3.70;;;21.60;98.90;;;;;;4193444;28;20219;-75
2022/05/15 04:06:16;;;;;;;6.72;3.88;;;21.60;98.90;;;;;;4193935;28;20246;-75
2022/05/15 04:08:18;;;;;;;6.47;4.10;;;21.60;98.90;;;;;;4192595;28;20215;-75
2022/05/15 04:10:23;;;;;;;8.18;3.78;;;21.60;98.90;;;;;;4194365;28;20605;-75
2022/05/15 04:12:25;;;;;;;5.68;3.47;;;21.60;98.90;;;;;;4193650;28;20265;-75
2022/05/15 04:14:29;;;;;;;5.35;3.67;;;21.60;98.90;;;;;;4194387;28;20298;-75
2022/05/15 04:16:32;;;;;;;4.93;3.63;;;21.50;98.90;;;;;;4192517;28;20235;-75
2022/05/15 04:18:35;;;;;;;6.32;3.40;;;21.60;99.10;;;;;;4193972;28;20292;-75
2022/05/15 04:20:38;;;;;;;7.75;4.13;;;21.60;98.90;;;;;;4192837;28;20219;-75
2022/05/15 04:22:41;;;;;;;7.28;3.75;;;21.60;98.90;;;;;;4193818;28;20582;-76
2022/05/15 04:24:44;;;;;;;6.13;3.78;;;21.60;99.00;;;;;;4193922;28;20233;-75
2022/05/15 04:26:48;;;;;;;7.47;4.00;;;21.60;99.10;;;;;;4193069;28;20830;-75
2022/05/15 04:28:50;;;;;;;7.55;3.90;;;21.60;99.00;;;;;;4193152;28;20231;-75
2022/05/15 04:30:52;;;;;;;7.35;3.72;;;21.50;99.10;;;;;;4191806;28;20269;-75
2022/05/15 04:32:54;;;;;;;8.45;4.07;;;21.50;99.10;;;;;;4192842;28;20260;-75
2022/05/15 04:34:57;;;;;;;5.97;3.78;;;21.50;98.90;;;;;;4193579;28;20227;-75
2022/05/15 04:36:59;;;;;;;5.32;3.63;;;21.50;98.90;;;;;;4193003;28;20239;-75
2022/05/15 04:39:04;;;;;;;7.40;3.85;;;21.50;99.00;;;;;;4190694;28;20245;-75
2022/05/15 04:41:06;;;;;;;7.97;3.50;;;21.60;99.00;;;;;;4192102;28;20223;-75
2022/05/15 04:43:08;;;;;;;9.75;3.80;;;21.50;99.00;;;;;;4192170;28;20231;-76
2022/05/15 04:45:12;;;;;;;6.38;3.92;;;21.50;99.00;;;;;;4193640;28;20617;-75
2022/05/15 04:47:14;;;;;;;4.65;3.40;;;21.60;98.90;;;;;;4193247;28;20223;-75
2022/05/15 04:49:16;;;;;;;7.30;3.97;;;21.50;98.90;;;;;;4193248;28;20231;-75
2022/05/15 04:51:19;;;;;;;7.28;3.97;;;21.50;98.90;;;;;;4192958;28;20273;-75
2022/05/15 04:53:21;;;;;;;7.82;4.05;;;21.50;98.80;;;;;;4192637;28;20219;-75
2022/05/15 04:55:26;;;;;;;5.88;3.60;;;21.50;99.00;;;;;;4192487;28;20223;-76
2022/05/15 04:57:29;;;;;;;6.55;3.85;;;21.50;99.40;;;;;;4188027;28;20273;-74
2022/05/15 04:59:31;;;;;;;6.10;3.85;;;21.60;99.00;;;;;;4194385;28;20235;-74
2022/05/15 05:01:34;;;;;;;5.55;3.17;;;21.50;99.50;;;;;;4195354;28;20261;-74
2022/05/15 05:03:36;;;;;;;6.90;4.13;;;21.50;99.40;;;;;;4193952;28;20214;-74
2022/05/15 05:05:39;;;;;;;6.45;4.13;;;21.60;99.10;;;;;;4195067;28;20215;-74
2022/05/15 05:07:41;;;;;;;6.22;3.85;;;21.50;98.90;;;;;;4195078;28;20235;-74
2022/05/15 05:09:43;;;;;;;5.82;3.65;;;21.50;99.10;;;;;;4194022;28;20227;-74
2022/05/15 05:11:47;;;;;;;9.23;3.80;;;21.50;99.10;;;;;;4194501;28;20231;-74
2022/05/15 05:13:50;;;;;;;7.40;3.90;;;21.50;98.90;;;;;;4193070;28;20215;-74
2022/05/15 05:15:52;;;;;;;6.38;3.72;;;21.50;99.00;;;;;;4194352;28;20223;-74
2022/05/15 05:17:56;;;;;;;6.90;3.58;;;21.50;98.80;;;;;;4194973;28;20292;-74
2022/05/15 05:19:58;;;;;;;5.88;3.97;;;21.50;99.00;;;;;;4193473;28;20648;-74
2022/05/15 05:22:00;;;;;;;7.68;4.03;;;21.50;99.10;;;;;;4194223;28;20693;-74
2022/05/15 05:24:03;;;;;;;6.47;3.90;;;21.60;99.00;;;;;;4193815;28;20572;-74
2022/05/15 05:26:05;;;;;;;6.00;3.78;;;21.50;99.10;;;;;;4193856;28;20223;-74
2022/05/15 05:28:09;;;;;;;8.55;4.05;;;21.50;98.80;;;;;;4193996;28;20215;-74
2022/05/15 05:30:14;;;;;;;7.03;3.40;;;21.50;99.00;;;;;;4192696;28;20245;-74
2022/05/15 05:32:16;;;;;;;4.72;3.60;;;21.60;99.10;;;;;;4194017;28;20269;-74
2022/05/15 05:34:19;;;;;;;7.93;4.35;;;21.60;98.90;;;;;;4193672;28;20234;-74
2022/05/15 05:36:22;;;;;;;7.15;3.92;;;21.60;99.10;;;;;;4193637;28;20304;-74
2022/05/15 05:38:24;;;;;;;7.30;3.80;;;21.60;98.90;;;;;;4193625;28;20238;-74
2022/05/15 05:40:27;;;;;;;4.88;3.50;;;21.60;98.90;;;;;;4193905;28;20896;-74
2022/05/15 05:42:29;;;;;;;6.30;3.70;;;21.60;98.90;;;;;;4192209;28;20260;-74
2022/05/15 05:44:33;;;;;;;6.20;3.60;;;21.60;98.70;;;;;;4192700;28;20231;-74
2022/05/15 05:46:35;;;;;;;6.13;3.50;;;21.60;99.10;;;;;;4191734;28;20215;-74
2022/05/15 05:48:37;;;;;;;6.43;3.67;;;21.60;98.70;;;;;;4193771;28;20223;-74
2022/05/15 05:50:40;;;;;;;6.13;3.70;;;21.60;98.90;;;;;;4193584;28;20227;-74
2022/05/15 05:52:43;;;;;;;6.55;3.55;;;21.70;98.90;;;;;;4194695;28;20630;-74
2022/05/15 05:54:45;;;;;;;6.93;3.65;;;21.70;98.80;;;;;;4193336;28;20227;-74
2022/05/15 05:56:48;;;;;;;6.78;3.40;;;21.70;98.70;;;;;;4193395;28;20210;-74
2022/05/15 05:58:50;;;;;;;5.18;3.47;;;21.70;98.90;;;;;;4194080;28;20310;-74
2022/05/15 06:00:54;;;;;;;5.45;3.28;;;21.70;99.20;;;;;;4194162;28;20249;-74
2022/05/15 06:04:39;;;;;;;7.47;3.97;;;21.70;98.90;;;;;;4194459;28;20227;-74
2022/05/15 06:05:19;;;;;;;7.05;3.80;;;21.70;98.70;;;;;;4191792;28;20268;-75
2022/05/15 06:07:24;;;;;;;6.35;4.00;;;21.70;98.80;;;;;;4192330;28;20300;-74
2022/05/15 06:09:27;;;;;;;7.10;3.67;;;21.70;98.60;;;;;;4192558;28;20210;-74
2022/05/15 06:11:29;;;;;;;5.72;3.50;;;21.70;98.60;;;;;;4192436;28;20281;-74
2022/05/15 06:13:31;;;;;;;6.75;3.95;;;21.70;98.70;;;;;;4192234;28;20282;-74
2022/05/15 06:15:34;;;;;;;6.70;3.92;;;21.70;98.70;;;;;;4192382;28;20277;-74
2022/05/15 06:17:38;;;;;;;7.50;4.03;;;21.70;98.80;;;;;;4191828;28;20214;-74
2022/05/15 06:19:41;;;;;;;4.88;3.50;;;21.70;99.10;;;;;;4192863;28;20264;-74
2022/05/15 06:21:44;;;;;;;6.32;3.28;;;21.70;98.70;;;;;;4191935;28;20269;-74
2022/05/15 06:23:47;;;;;;;7.95;3.47;;;21.70;98.60;;;;;;4192168;28;20255;-74
2022/05/15 06:25:49;;;;;;;7.43;4.03;;;21.70;98.60;;;;;;4191153;28;20723;-74
2022/05/15 06:27:52;;;;;;;4.40;3.47;;;21.70;98.70;;;;;;4190337;28;20264;-74
2022/05/15 06:29:57;;;;;;;5.20;3.60;;;21.80;98.60;;;;;;4193899;28;20272;-74
2022/05/15 06:32:00;;;;;;;6.22;4.13;;;21.70;98.50;;;;;;4193236;28;20231;-74
2022/05/15 06:34:04;;;;;;;7.05;3.67;;;21.70;98.60;;;;;;4193205;28;20234;-74
2022/05/15 06:36:08;;;;;;;5.65;3.53;;;21.70;98.40;;;;;;4192780;28;20296;-74
2022/05/15 06:38:10;;;;;;;5.45;3.50;;;21.70;98.60;;;;;;4192449;28;20264;-74
2022/05/15 06:40:14;;;;;;;6.47;3.65;;;21.70;99.10;;;;;;4193113;28;20664;-74
2022/05/15 06:42:17;;;;;;;5.80;3.58;;;21.70;98.70;;;;;;4192559;28;20268;-74
2022/05/15 06:44:19;;;;;;;5.97;3.55;;;21.70;98.70;;;;;;4192602;28;20703;-74
2022/05/15 06:46:22;;;;;;;4.93;3.05;;;21.70;98.50;;;;;;4188068;28;20245;-74
2022/05/15 06:48:24;;;;;;;6.90;3.60;;;21.70;98.60;;;;;;4193616;28;20223;-74
2022/05/15 06:50:28;;;;;;;8.85;3.83;;;21.70;98.50;;;;;;4193690;28;20636;-74
2022/05/15 06:52:30;;;;;;;3.90;3.10;;;21.70;98.70;;;;;;4192300;28;20272;-74
2022/05/15 06:54:32;;;;;;;5.63;3.28;;;21.70;98.70;;;;;;4193181;28;20245;-74
2022/05/15 06:58:54;;;;;;;5.28;3.22;;;21.70;98.50;;;;;;4193939;28;20231;-74
2022/05/15 07:00:57;;;;;;;7.15;3.70;;;21.70;98.70;;;;;;4193017;28;20617;-74
2022/05/15 07:02:59;;;;;;;6.03;3.72;;;21.70;98.70;;;;;;4192913;28;20215;-74
2022/05/15 07:05:01;;;;;;;5.25;3.40;;;21.70;98.60;;;;;;4192949;28;21009;-74
2022/05/15 07:07:06;;;;;;;4.97;3.30;;;21.80;98.70;;;;;;4192653;28;20621;-74
2022/05/15 07:09:08;;;;;;;5.25;3.53;;;21.80;99.10;;;;;;4192329;28;20269;-74
2022/05/15 07:11:12;;;;;;;5.93;3.78;;;21.70;98.80;;;;;;4192584;28;20226;-74
2022/05/15 07:13:14;;;;;;;5.95;3.50;;;21.70;98.60;;;;;;4192715;28;20229;-74
2022/05/15 07:15:17;;;;;;;5.47;3.45;;;21.70;98.60;;;;;;4192728;28;20285;-74
2022/05/15 07:17:19;;;;;;;7.32;3.67;;;21.80;98.60;;;;;;4193128;28;20223;-74
2022/05/15 07:19:21;;;;;;;7.45;3.92;;;21.80;98.70;;;;;;4194687;28;20706;-74
2022/05/15 07:21:24;;;;;;;4.60;3.58;;;21.80;98.70;;;;;;4196745;28;20729;-74
2022/05/15 07:23:27;;;;;;;6.55;3.45;;;21.80;98.70;;;;;;4196195;28;20261;-74
2022/05/15 07:25:30;;;;;;;6.25;3.45;;;21.80;98.50;;;;;;4194860;28;20227;-74
2022/05/15 07:27:32;;;;;;;7.38;4.07;;;21.80;98.40;;;;;;4195530;28;20215;-74
2022/05/15 07:29:36;;;;;;;6.05;3.60;;;21.80;98.50;;;;;;4195055;28;20265;-74
2022/05/15 07:31:38;;;;;;;6.63;3.65;;;21.80;98.50;;;;;;4195208;28;20959;-74
2022/05/15 07:33:42;;;;;;;4.28;3.40;;;21.80;98.30;;;;;;4196012;28;20630;-74
2022/05/15 07:35:44;;;;;;;6.32;3.70;;;21.80;98.40;;;;;;4195031;28;20258;-74
2022/05/15 07:37:47;;;;;;;6.00;3.20;;;21.80;98.70;;;;;;4196610;28;20895;-75
2022/05/15 07:39:51;;;;;;;5.22;3.00;;;21.90;98.70;;;;;;4193752;28;20257;-75
2022/05/15 07:41:53;;;;;;;6.43;3.20;;;21.80;98.70;;;;;;4194746;28;20226;-75
2022/05/15 07:43:55;;;;;;;5.55;3.42;;;21.90;98.80;;;;;;4195797;28;20226;-74
2022/05/15 07:45:58;;;;;;;3.88;3.10;;;21.90;98.80;;;;;;4195645;28;21023;-74
2022/05/15 07:48:01;;;;;;;4.18;3.03;;;21.90;98.60;;;;;;4196094;28;20227;-74
2022/05/15 07:50:05;;;;;;;6.05;3.08;;;21.90;98.50;;;;;;4195713;28;20223;-74
2022/05/15 07:52:07;;;;;;;6.28;3.35;;;21.90;98.60;;;;;;4195792;28;20215;-74
2022/05/15 07:54:10;;;;;;;5.65;3.10;;;21.90;98.50;;;;;;4195462;28;20273;-74
2022/05/15 07:56:14;;;;;;;4.63;2.97;;;21.90;98.50;;;;;;4195377;28;20231;-74
2022/05/15 07:58:16;;;;;;;4.28;2.80;;;21.90;98.50;;;;;;4194596;28;20219;-74
2022/05/15 08:00:19;;;;;;;4.32;3.22;;;22.00;98.50;;;;;;4194446;28;20239;-74
2022/05/15 08:02:22;;;;;;;6.72;3.40;;;22.00;98.40;;;;;;4195654;28;20248;-74
2022/05/15 08:04:24;;;;;;;5.50;3.20;;;22.00;98.50;;;;;;4195371;28;20227;-74
2022/05/15 08:08:47;;;;;;;5.18;3.40;;;22.00;98.30;;;;;;4194830;28;20907;-74
2022/05/15 08:10:50;;;;;;;5.30;3.30;;;22.00;98.10;;;;;;4193954;28;20256;-74
2022/05/15 08:12:54;;;;;;;4.38;3.22;;;22.00;98.10;;;;;;4195862;28;20223;-74
2022/05/15 08:14:56;;;;;;;5.57;3.25;;;22.00;98.20;;;;;;4192698;28;20568;-75
2022/05/15 08:17:00;;;;;;;4.20;3.03;;;22.10;98.30;;;;;;4195076;28;20219;-74
2022/05/15 08:23:48;;;;;;;4.95;3.30;;;22.10;98.40;;;;;;4195815;28;20260;-74
2022/05/15 08:25:51;;;;;;;4.90;3.05;;;22.10;98.20;;;;;;4193140;28;20646;-74
2022/05/15 08:27:55;;;;;;;5.65;3.15;;;22.10;98.30;;;;;;4194810;28;20223;-74
2022/05/15 08:29:57;;;;;;;5.40;2.92;;;22.10;98.20;;;;;;4193891;28;20224;-74
2022/05/15 08:31:59;;;;;;;4.90;3.08;;;22.10;98.30;;;;;;4194895;28;20215;-74
2022/05/15 08:34:01;;;;;;;4.32;3.05;;;22.10;98.20;;;;;;4187530;28;20223;-73
2022/05/15 08:36:08;;;;;;;5.65;3.10;;;22.10;98.20;;;;;;4194762;28;20681;-73
2022/05/15 08:38:10;;;;;;;5.15;3.17;;;22.10;98.20;;;;;;4194700;28;20226;-74
2022/05/15 08:40:13;;;;;;;6.07;3.35;;;22.10;98.00;;;;;;4195268;28;20580;-74
2022/05/15 08:42:21;;;;;;;4.18;3.00;;;22.10;98.00;;;;;;4195433;28;20223;-74
2022/05/15 08:44:30;;;;;;;4.90;3.20;;;22.10;98.20;;;;;;4193813;28;20218;-74
2022/05/15 08:46:41;;;;;;;4.20;2.83;;;22.10;98.00;;;;;;4195534;28;20305;-74
2022/05/15 08:48:43;;;;;;;5.00;3.20;;;22.10;98.10;;;;;;4194360;28;20233;-74
2022/05/15 08:50:49;;;;;;;4.88;3.00;;;22.20;98.00;;;;;;4194295;28;20219;-74
2022/05/15 08:52:56;;;;;;;5.43;3.40;;;22.20;98.00;;;;;;4192727;28;20223;-74
2022/05/15 08:55:06;;;;;;;3.97;2.78;;;22.20;98.00;;;;;;4194736;28;20207;-74
2022/05/15 08:57:16;;;;;;;4.63;2.90;;;22.20;98.00;;;;;;4194354;28;20625;-74
2022/05/15 08:59:23;;;;;;;5.05;3.00;;;22.20;98.20;;;;;;4194445;28;20241;-74
2022/05/15 09:01:28;;;;;;;3.75;2.78;;;22.20;98.20;;;;;;4194046;28;20219;-74
2022/05/15 09:03:35;;;;;;;5.38;3.17;;;22.20;98.20;;;;;;4194109;28;20639;-75
2022/05/15 09:05:37;;;;;;;4.18;3.03;;;22.20;98.10;;;;;;4194656;28;20616;-75
2022/05/15 09:07:51;;;;;;;4.47;2.83;;;22.20;98.20;;;;;;4193498;28;20578;-74
2022/05/15 09:10:04;;;;;;;4.57;2.83;;;22.20;98.10;;;;;;4193777;28;20215;-74
2022/05/15 09:12:15;;;;;;;3.67;2.92;;;22.20;98.00;;;;;;4195364;28;20264;-74
2022/05/15 09:14:29;;;;;;;3.67;2.63;;;22.20;98.10;;;;;;4193112;28;20264;-74
2022/05/15 09:16:32;;;;;;;3.33;2.88;;;22.20;98.10;;;;;;4194057;28;20227;-74
2022/05/15 09:18:37;;;;;;;4.93;3.70;;;22.30;98.10;;;;;;4194301;28;20207;-74
2022/05/15 09:20:56;;;;;;;3.50;2.50;;;22.30;98.50;;;;;;4193887;28;20640;-74
2022/05/15 09:23:02;;;;;;;4.53;3.10;;;22.20;98.20;;;;;;4194520;28;20280;-74
2022/05/15 09:25:12;;;;;;;4.75;2.80;;;22.30;98.20;;;;;;4193229;28;20227;-74
2022/05/15 09:27:17;;;;;;;3.55;2.80;;;22.30;98.10;;;;;;4193074;28;20222;-74
2022/05/15 09:29:22;;;;;;;4.00;2.85;;;22.30;98.30;;;;;;4195089;28;20260;-74
2022/05/15 09:31:27;;;;;;;4.13;3.20;;;22.20;98.10;;;;;;4193542;28;20223;-74
2022/05/15 09:33:35;;;;;;;5.00;3.13;;;22.30;98.20;;;;;;4193700;28;20215;-74
2022/05/15 09:35:41;;;;;;;3.95;3.00;;;22.30;98.30;;;;;;4193671;28;20223;-74
2022/05/15 09:40:08;;;;;;;4.88;3.17;;;22.30;98.20;;;;;;4193979;28;20675;-74
2022/05/15 09:44:42;;;;;;;3.40;2.72;;;22.30;98.30;;;;;;4191516;28;20211;-74
2022/05/15 09:46:57;;;;;;;3.40;2.50;;;22.30;98.10;;;;;;4192981;28;20264;-74
2022/05/15 09:49:05;;;;;;;4.32;2.90;;;22.30;98.10;;;;;;4193147;28;20223;-74
2022/05/15 09:51:12;;;;;;;4.07;2.53;;;22.30;98.10;;;;;;4187083;28;20631;-74
2022/05/15 09:53:21;;;;;;;4.60;2.83;;;22.30;98.00;;;;;;4193424;28;20223;-74
2022/05/15 09:55:27;;;;;;;4.05;2.60;;;22.30;98.10;;;;;;4193773;28;20225;-74
2022/05/15 09:57:30;;;;;;;4.32;2.63;;;22.30;98.20;;;;;;4194376;28;20215;-74
2022/05/15 09:59:32;;;;;;;6.78;3.17;;;22.30;98.00;;;;;;4193271;28;20219;-74
2022/05/15 10:01:37;;;;;;;4.72;3.00;;;22.30;98.10;;;;;;4191988;28;20223;-74
2022/05/15 10:03:39;;;;;;;3.83;2.90;;;22.30;98.30;;;;;;4191234;28;20215;-74
2022/05/15 10:05:43;;;;;;;3.15;2.85;;;22.30;98.60;;;;;;4192592;28;20269;-74
2022/05/15 10:07:57;;;;;;;5.30;3.08;;;22.30;98.10;;;;;;4192855;28;20715;-74
2022/05/15 10:10:15;;;;;;;5.93;2.72;;;22.40;98.10;;;;;;4192687;28;20223;-74
2022/05/15 10:12:27;;;;;;;4.10;2.85;;;22.30;98.30;;;;;;4192818;28;20230;-74
2022/05/15 10:14:38;;;;;;;4.75;3.05;;;22.30;98.10;;;;;;4193009;28;20218;-74
2022/05/15 10:16:49;;;;;;;4.13;2.58;;;22.30;98.20;;;;;;4192355;28;20748;-74
2022/05/15 10:18:57;;;;;;;3.67;2.60;;;22.30;98.10;;;;;;4192201;28;20215;-74
2022/05/15 10:21:02;;;;;;;4.15;2.70;;;22.30;98.20;;;;;;4193751;28;20289;-74
2022/05/15 10:23:09;;;;;;;4.13;2.60;;;22.30;98.20;;;;;;4193587;28;20255;-74
2022/05/15 10:25:17;;;;;;;5.38;2.72;;;22.30;98.20;;;;;;4192042;28;20717;-74
2022/05/15 10:27:26;;;;;;;5.20;3.03;;;22.30;98.20;;;;;;4193588;28;20570;-74
2022/05/15 10:29:36;;;;;;;4.00;2.63;;;22.30;98.10;;;;;;4193047;28;20256;-74
2022/05/15 10:31:44;;;;;;;3.53;2.80;;;22.30;98.00;;;;;;4190243;28;20261;-74
2022/05/15 10:33:49;;;;;;;4.13;2.53;;;22.30;98.10;;;;;;4191677;28;20226;-74
2022/05/15 10:36:00;;;;;;;3.90;2.63;;;22.30;98.10;;;;;;4193163;28;20284;-74
2022/05/15 10:38:17;;;;;;;3.63;2.92;;;22.40;98.10;;;;;;4191580;28;20272;-74
2022/05/15 10:40:34;;;;;;;5.35;2.80;;;22.30;98.20;;;;;;4192080;28;20242;-74
2022/05/15 10:42:47;;;;;;;4.28;2.90;;;22.30;98.00;;;;;;4192671;28;20223;-74
2022/05/15 10:45:01;;;;;;;4.53;2.47;;;22.30;98.00;;;;;;4192517;28;20206;-74
2022/05/15 10:47:09;;;;;;;3.47;2.58;;;22.30;98.00;;;;;;4192680;28;20223;-74
2022/05/15 10:49:37;;;;;;;5.10;3.10;;;22.30;98.00;;;;;;4191705;28;20275;-74
2022/05/15 10:51:49;;;;;;;3.33;2.60;;;22.30;98.10;;;;;;4193214;28;20605;-74
2022/05/15 10:59:18;;;;;;;3.67;2.58;;;22.30;98.10;;;;;;4192856;28;20207;-74
2022/05/15 11:01:28;;;;;;;3.38;2.72;;;22.40;98.10;;;;;;4192120;28;20291;-74
2022/05/15 11:03:44;;;;;;;4.25;2.55;;;22.30;98.00;;;;;;4192365;28;20219;-74
2022/05/15 11:05:58;;;;;;;3.50;2.63;;;22.30;98.10;;;;;;4191480;28;21654;-74
2022/05/15 11:08:16;;;;;;;3.10;2.40;;;22.30;98.10;;;;;;4192584;28;20207;-74
2022/05/15 11:10:24;;;;;;;2.92;2.30;;;22.30;98.10;;;;;;4191936;28;20222;-74